Lewistown, Missouri
Current Conditions -  °F | °C
As of 9:15 AM on Saturday 25 Oct 2014 (Local Time) from KHAE Reporting Station
Light Snow Light Snow  
Wind Chill: 16°   Ceiling: 100
Heat Index: 16°   Visibility: 0.25mi
Dew Point: 15°   Wind: 5mph
Humidity: 94%   Direction: 320°NW
Pressure: 30.06"   Gusts: NA
Location:  40.09°N, 91.81°W
Report Text: KHAE 251415Z AUTO 32004KT 1/4SM -SN OVC001 16/15 A3006 RMK AO2
Loading
Personal Weather Stations






























Interactive Weather Map
Tropical Storm Tracking
New forecast layout! Learn more

10-Day Weather Forecast

Advertisements
Track Severe Weather on mobile